Time;durP1;ratioP1;P1;durP2;ratioP2;P2;SDS_P1;SDS_P2;PMS_P1;PMS_P2;Temp;Humidity;BMP_temperature;BMP_pressure;BME280_temperature;BME280_humidity;BME280_pressure;Samples;Min_cycle;Max_cycle;Signal;HPM_P1;HPM_P2
2021/05/07 00:01:09;;;;;;;11.82;9.48;;;24.60;56.00;;;;;;5073450;28;20490;-54
2021/05/07 00:03:37;;;;;;;10.77;9.73;;;24.50;56.00;;;;;;5055277;28;20049;-54
2021/05/07 00:06:04;;;;;;;12.73;9.27;;;24.50;56.00;;;;;;5073395;28;20052;-54
2021/05/07 00:08:40;;;;;;;11.20;8.38;;;24.50;56.00;;;;;;5073247;28;20374;-55
2021/05/07 00:11:10;;;;;;;11.57;8.95;;;24.50;56.00;;;;;;5073475;28;20047;-54
2021/05/07 00:13:37;;;;;;;9.60;8.45;;;24.50;55.90;;;;;;5073239;28;20106;-54
2021/05/07 00:16:03;;;;;;;9.88;8.45;;;24.50;55.90;;;;;;5073204;28;20051;-55
2021/05/07 00:18:30;;;;;;;8.70;7.80;;;24.60;56.00;;;;;;5073412;28;20094;-54
2021/05/07 00:20:57;;;;;;;9.15;7.20;;;24.50;55.90;;;;;;5055119;28;20075;-54
2021/05/07 00:23:23;;;;;;;9.13;7.05;;;24.50;55.90;;;;;;5072246;28;20103;-54
2021/05/07 00:25:51;;;;;;;7.38;6.60;;;24.50;56.00;;;;;;5073072;28;20113;-54
2021/05/07 00:28:19;;;;;;;10.13;7.28;;;24.50;56.00;;;;;;5073346;28;20055;-54
2021/05/07 00:30:46;;;;;;;8.73;6.55;;;24.50;56.00;;;;;;5054974;28;20045;-54
2021/05/07 00:33:12;;;;;;;6.97;6.25;;;24.50;55.90;;;;;;5072785;28;20125;-54
2021/05/07 00:35:38;;;;;;;7.20;6.03;;;24.50;56.00;;;;;;5073095;28;20052;-54
2021/05/07 00:38:05;;;;;;;8.23;6.38;;;24.50;56.00;;;;;;5055192;28;20036;-54
2021/05/07 00:40:32;;;;;;;10.07;6.90;;;24.50;56.00;;;;;;5073098;28;20509;-54
2021/05/07 00:42:59;;;;;;;8.85;6.82;;;24.50;56.00;;;;;;5054906;28;20449;-54
2021/05/07 00:45:27;;;;;;;7.50;6.80;;;24.50;56.00;;;;;;5072691;28;20044;-54
2021/05/07 00:48:04;;;;;;;7.68;6.90;;;24.50;56.00;;;;;;5072637;28;20456;-54
2021/05/07 00:50:33;;;;;;;9.13;6.47;;;24.40;56.00;;;;;;5054552;28;20390;-54
2021/05/07 00:53:00;;;;;;;9.18;6.63;;;24.50;56.00;;;;;;5072353;28;20040;-54
2021/05/07 00:55:28;;;;;;;7.43;6.68;;;24.50;56.00;;;;;;5072829;28;20422;-54
2021/05/07 00:57:55;;;;;;;7.38;6.68;;;24.40;55.90;;;;;;5054263;28;20040;-54
2021/05/07 01:00:23;;;;;;;7.90;6.30;;;24.40;55.90;;;;;;5054456;28;20044;-54
2021/05/07 01:02:49;;;;;;;8.40;7.15;;;24.40;55.90;;;;;;5072136;28;20105;-55
2021/05/07 01:05:16;;;;;;;7.05;6.35;;;24.40;55.90;;;;;;5054068;28;20040;-54
2021/05/07 01:07:42;;;;;;;8.35;7.13;;;24.40;55.90;;;;;;5054095;28;20036;-54
2021/05/07 01:10:12;;;;;;;10.25;6.45;;;24.40;55.90;;;;;;5053945;28;20587;-54
2021/05/07 01:12:40;;;;;;;7.80;6.07;;;24.40;55.90;;;;;;5054055;28;20458;-54
2021/05/07 01:15:18;;;;;;;9.00;6.53;;;24.40;55.90;;;;;;5072244;28;20044;-54
2021/05/07 01:17:47;;;;;;;7.50;6.63;;;24.40;55.90;;;;;;5071984;28;20047;-54
2021/05/07 01:20:23;;;;;;;8.38;6.78;;;24.40;55.80;;;;;;5053848;28;20432;-54
2021/05/07 01:22:51;;;;;;;8.18;6.70;;;24.40;55.90;;;;;;5053675;28;20037;-54
2021/05/07 01:25:24;;;;;;;7.43;6.22;;;24.40;55.90;;;;;;5053607;28;20040;-54
2021/05/07 01:27:53;;;;;;;9.65;7.00;;;24.30;55.80;;;;;;5071656;28;20493;-54
2021/05/07 01:30:26;;;;;;;6.85;6.05;;;24.40;55.90;;;;;;5071803;28;20098;-54
2021/05/07 01:32:52;;;;;;;7.63;6.90;;;24.40;55.90;;;;;;5052968;28;20045;-54
2021/05/07 01:35:24;;;;;;;7.85;6.80;;;24.40;55.90;;;;;;5071350;28;20437;-54
2021/05/07 01:37:53;;;;;;;8.07;6.40;;;24.30;55.80;;;;;;5071591;28;20040;-54
2021/05/07 01:40:21;;;;;;;8.73;6.97;;;24.30;55.80;;;;;;5036921;28;20032;-54
2021/05/07 01:42:50;;;;;;;7.95;7.15;;;24.30;55.80;;;;;;5053842;28;20082;-54
2021/05/07 01:45:18;;;;;;;11.80;7.38;;;24.30;55.80;;;;;;5054109;28;20060;-54
2021/05/07 01:47:45;;;;;;;6.65;5.97;;;24.30;55.80;;;;;;5071689;28;20051;-54
2021/05/07 01:50:14;;;;;;;7.95;7.15;;;24.30;55.80;;;;;;5071644;28;20162;-55
2021/05/07 01:52:40;;;;;;;7.13;6.43;;;24.30;55.80;;;;;;5053397;28;20398;-54
2021/05/07 01:55:09;;;;;;;7.55;6.85;;;24.30;55.80;;;;;;5071572;28;20091;-54
2021/05/07 01:57:37;;;;;;;10.43;6.80;;;24.30;55.80;;;;;;5071348;28;20086;-54
2021/05/07 02:00:13;;;;;;;7.90;6.85;;;24.30;55.80;;;;;;5071400;28;20434;-54
2021/05/07 02:02:45;;;;;;;7.22;6.53;;;24.30;55.90;;;;;;5053257;28;20440;-54
2021/05/07 02:05:21;;;;;;;8.48;6.63;;;24.30;55.80;;;;;;5053221;28;20051;-54
2021/05/07 02:07:49;;;;;;;7.70;6.90;;;24.30;55.80;;;;;;5053347;28;20048;-54
2021/05/07 02:10:19;;;;;;;7.05;6.35;;;24.30;55.70;;;;;;5053293;28;20032;-54
2021/05/07 02:12:45;;;;;;;8.23;6.90;;;24.30;55.80;;;;;;5071127;28;20094;-54
2021/05/07 02:15:16;;;;;;;10.13;7.07;;;24.30;55.80;;;;;;5071046;28;20032;-54
2021/05/07 02:17:47;;;;;;;8.70;6.82;;;24.30;55.80;;;;;;5053220;28;20047;-54
2021/05/07 02:20:15;;;;;;;7.47;6.65;;;24.30;55.70;;;;;;5071065;28;20433;-54
2021/05/07 02:22:44;;;;;;;8.68;6.60;;;24.30;55.80;;;;;;5053185;28;20458;-55
2021/05/07 02:25:11;;;;;;;7.28;6.55;;;24.30;55.70;;;;;;5071011;28;20094;-54
2021/05/07 02:27:37;;;;;;;8.35;6.28;;;24.30;55.70;;;;;;5053132;28;20142;-54
2021/05/07 02:30:06;;;;;;;9.00;7.10;;;24.30;55.70;;;;;;5052862;28;20033;-54
2021/05/07 02:32:33;;;;;;;8.25;7.43;;;24.30;55.70;;;;;;5053120;28;20560;-54
2021/05/07 02:34:59;;;;;;;9.50;6.93;;;24.20;55.60;;;;;;5053174;28;20401;-54
2021/05/07 02:37:25;;;;;;;7.70;6.32;;;24.20;55.60;;;;;;5053522;28;20033;-54
2021/05/07 02:39:51;;;;;;;7.70;7.00;;;24.20;55.60;;;;;;5070937;28;20059;-54
2021/05/07 02:42:17;;;;;;;10.10;7.90;;;24.20;55.70;;;;;;5052796;28;20040;-54
2021/05/07 02:44:43;;;;;;;8.63;7.30;;;24.30;55.70;;;;;;5052990;28;20045;-54
2021/05/07 02:47:09;;;;;;;9.45;6.95;;;24.20;55.60;;;;;;5040139;28;20344;-55
2021/05/07 02:49:37;;;;;;;9.05;6.72;;;24.20;55.60;;;;;;5056912;28;20127;-55
2021/05/07 02:52:04;;;;;;;7.90;6.88;;;24.20;55.60;;;;;;5075278;28;20045;-54
2021/05/07 02:54:33;;;;;;;8.73;7.28;;;24.20;55.60;;;;;;5074653;28;20029;-54
2021/05/07 02:57:00;;;;;;;7.75;6.95;;;24.20;55.60;;;;;;5074483;28;20063;-55
2021/05/07 02:59:28;;;;;;;9.70;7.53;;;24.20;55.60;;;;;;5056827;28;20117;-54
2021/05/07 03:01:54;;;;;;;9.55;7.10;;;24.20;55.50;;;;;;5074595;28;20089;-54
2021/05/07 03:04:20;;;;;;;7.88;6.38;;;24.20;55.50;;;;;;5074636;28;20066;-54
2021/05/07 03:06:50;;;;;;;8.32;7.20;;;24.20;55.40;;;;;;5074580;28;20041;-54
2021/05/07 03:09:17;;;;;;;8.40;6.05;;;24.10;55.40;;;;;;5074551;28;20086;-54
2021/05/07 03:11:44;;;;;;;8.13;5.78;;;24.10;55.30;;;;;;5056535;28;20432;-54
2021/05/07 03:14:10;;;;;;;9.32;6.47;;;24.10;55.30;;;;;;5074262;28;20040;-54
2021/05/07 03:16:37;;;;;;;10.00;6.97;;;24.10;55.20;;;;;;5074560;28;20032;-54
2021/05/07 03:19:04;;;;;;;8.10;6.80;;;24.10;55.20;;;;;;5074401;28;20063;-54
2021/05/07 03:21:30;;;;;;;7.05;6.35;;;24.10;55.20;;;;;;5074456;28;20032;-54
2021/05/07 03:23:56;;;;;;;7.72;5.70;;;24.10;55.20;;;;;;5074304;28;20041;-54
2021/05/07 03:26:22;;;;;;;8.02;6.07;;;24.20;55.20;;;;;;5074134;28;20046;-54
2021/05/07 03:28:48;;;;;;;6.30;5.70;;;24.10;55.10;;;;;;5074065;28;20033;-54
2021/05/07 03:31:14;;;;;;;7.47;6.00;;;24.10;55.10;;;;;;5074069;28;20043;-54
2021/05/07 03:33:40;;;;;;;7.68;5.97;;;24.10;55.10;;;;;;5073637;28;20048;-54
2021/05/07 03:36:06;;;;;;;8.10;6.25;;;24.10;55.10;;;;;;5073950;28;20058;-53
2021/05/07 03:38:33;;;;;;;8.43;6.78;;;24.10;55.10;;;;;;5074037;28;20033;-54
2021/05/07 03:40:59;;;;;;;8.80;5.78;;;24.10;55.20;;;;;;5055980;28;20032;-53
2021/05/07 03:43:25;;;;;;;8.20;5.80;;;24.10;55.20;;;;;;5074005;28;20106;-54
2021/05/07 03:45:51;;;;;;;6.90;6.07;;;24.10;55.20;;;;;;5073648;28;20526;-54
2021/05/07 03:48:21;;;;;;;7.18;6.38;;;24.10;55.20;;;;;;5073857;28;20086;-54
2021/05/07 03:50:48;;;;;;;11.57;8.18;;;24.10;55.30;;;;;;5073594;28;20045;-54
2021/05/07 03:53:15;;;;;;;8.93;7.75;;;24.10;55.40;;;;;;5074034;28;20433;-54
2021/05/07 03:55:42;;;;;;;11.25;8.55;;;24.10;55.40;;;;;;5073375;28;20158;-54
2021/05/07 03:58:09;;;;;;;8.00;7.13;;;24.10;55.50;;;;;;5073579;28;20486;-53
2021/05/07 04:00:35;;;;;;;9.07;7.50;;;24.10;55.50;;;;;;5073423;28;20035;-54
2021/05/07 04:03:02;;;;;;;8.07;7.28;;;24.10;55.50;;;;;;5073401;28;20498;-54
2021/05/07 04:05:28;;;;;;;11.32;7.90;;;24.10;55.50;;;;;;5073278;28;20036;-53
2021/05/07 04:08:09;;;;;;;10.25;8.15;;;24.10;55.60;;;;;;5073419;28;20064;-54
2021/05/07 04:10:40;;;;;;;8.40;7.57;;;24.10;55.70;;;;;;5073699;28;20032;-54
2021/05/07 04:15:32;;;;;;;8.75;7.63;;;24.10;55.80;;;;;;5073376;28;20036;-54
2021/05/07 04:17:59;;;;;;;9.25;8.15;;;24.10;55.80;;;;;;5073006;28;20037;-54
2021/05/07 04:20:25;;;;;;;9.18;8.07;;;24.10;55.80;;;;;;5055101;28;20119;-54
2021/05/07 04:22:51;;;;;;;9.82;8.82;;;24.10;55.80;;;;;;5073192;28;20098;-54
2021/05/07 04:25:17;;;;;;;10.98;8.88;;;24.10;55.90;;;;;;5073322;28;20040;-53
2021/05/07 04:27:44;;;;;;;10.30;9.25;;;24.10;55.90;;;;;;5072840;28;20036;-53
2021/05/07 04:30:11;;;;;;;9.63;8.73;;;24.10;56.00;;;;;;5054787;28;20048;-53
2021/05/07 04:32:37;;;;;;;10.57;9.40;;;24.10;56.00;;;;;;5051034;28;20055;-53
2021/05/07 04:35:04;;;;;;;10.55;9.32;;;24.10;56.10;;;;;;5053579;28;20433;-54
2021/05/07 04:37:30;;;;;;;11.07;8.93;;;24.10;56.10;;;;;;5064233;28;20119;-54
2021/05/07 04:39:56;;;;;;;10.13;8.60;;;24.10;56.10;;;;;;5072471;28;20032;-54
2021/05/07 04:42:22;;;;;;;9.80;8.80;;;24.10;56.10;;;;;;5088372;28;20090;-54
2021/05/07 04:44:48;;;;;;;9.75;8.75;;;24.10;56.10;;;;;;5073604;28;20029;-54
2021/05/07 04:47:14;;;;;;;11.02;9.27;;;24.10;56.20;;;;;;5055703;28;20068;-54
2021/05/07 04:49:40;;;;;;;10.38;9.23;;;24.10;56.10;;;;;;5065079;28;20037;-54
2021/05/07 04:52:07;;;;;;;9.48;8.55;;;24.10;56.20;;;;;;5066324;28;20036;-54
2021/05/07 04:54:34;;;;;;;12.57;9.93;;;24.10;56.20;;;;;;5056333;28;20131;-53
2021/05/07 04:57:01;;;;;;;14.60;9.90;;;24.10;56.20;;;;;;5073779;28;20492;-54
2021/05/07 04:59:27;;;;;;;10.50;9.35;;;24.10;56.30;;;;;;5073342;28;20048;-54
2021/05/07 05:01:53;;;;;;;10.50;9.40;;;24.10;56.30;;;;;;5050876;28;20044;-54
2021/05/07 05:04:19;;;;;;;11.82;9.50;;;24.10;56.30;;;;;;5054515;28;20041;-54
2021/05/07 05:06:45;;;;;;;10.38;9.35;;;24.10;56.30;;;;;;5072687;28;20111;-54
2021/05/07 05:09:11;;;;;;;11.23;10.10;;;24.10;56.30;;;;;;5072960;28;20127;-54
2021/05/07 05:11:37;;;;;;;11.32;9.82;;;24.10;56.40;;;;;;5073074;28;20036;-54
2021/05/07 05:14:03;;;;;;;11.63;10.05;;;24.10;56.40;;;;;;5073050;28;20056;-54
2021/05/07 05:16:29;;;;;;;11.38;10.18;;;24.10;56.40;;;;;;5055164;28;20438;-54
2021/05/07 05:18:55;;;;;;;10.80;9.65;;;24.10;56.50;;;;;;5072215;28;20036;-54
2021/05/07 05:21:21;;;;;;;11.70;9.25;;;24.10;56.40;;;;;;5071788;28;20486;-54
2021/05/07 05:23:49;;;;;;;11.20;10.05;;;24.10;56.50;;;;;;5071856;28;20039;-54
2021/05/07 05:26:15;;;;;;;11.63;10.30;;;24.10;56.50;;;;;;5071756;28;20036;-54
2021/05/07 05:28:41;;;;;;;16.10;12.18;;;24.10;56.50;;;;;;5071914;28;20138;-54
2021/05/07 05:31:08;;;;;;;12.80;10.02;;;24.10;56.60;;;;;;5071928;28;20099;-54
2021/05/07 05:33:34;;;;;;;10.90;9.82;;;24.10;56.60;;;;;;5053385;28;20075;-54
2021/05/07 05:36:01;;;;;;;11.30;10.05;;;24.10;56.60;;;;;;5058108;28;20078;-54
2021/05/07 05:38:27;;;;;;;12.63;10.98;;;24.10;56.60;;;;;;5069031;28;20418;-54
2021/05/07 05:40:53;;;;;;;12.43;11.15;;;24.10;56.60;;;;;;5052529;28;20041;-54
2021/05/07 05:43:19;;;;;;;15.95;11.45;;;24.10;56.60;;;;;;5052489;28;20036;-54
2021/05/07 05:45:46;;;;;;;12.82;11.45;;;24.10;56.70;;;;;;5052608;28;20035;-54
2021/05/07 05:48:14;;;;;;;12.63;11.27;;;24.10;56.70;;;;;;5065185;28;20041;-54
2021/05/07 05:50:45;;;;;;;14.35;11.48;;;24.10;56.70;;;;;;5072291;28;20058;-54
2021/05/07 05:53:11;;;;;;;14.25;12.07;;;24.10;56.70;;;;;;5070835;28;20510;-54
2021/05/07 05:55:38;;;;;;;13.73;12.30;;;24.10;56.60;;;;;;5070691;28;20040;-53
2021/05/07 05:58:05;;;;;;;16.15;11.95;;;24.10;56.70;;;;;;5069272;28;20036;-53
2021/05/07 06:00:32;;;;;;;12.20;11.10;;;24.10;56.70;;;;;;5062994;28;20110;-53
2021/05/07 06:02:58;;;;;;;14.63;12.55;;;24.10;56.70;;;;;;5056902;28;20039;-53
2021/05/07 06:05:24;;;;;;;17.92;14.73;;;24.20;56.70;;;;;;5047731;28;20044;-54
2021/05/07 06:07:51;;;;;;;16.48;13.68;;;24.10;56.70;;;;;;5069015;28;20044;-54
2021/05/07 06:10:18;;;;;;;21.25;16.92;;;24.10;57.00;;;;;;5068873;28;20086;-54
2021/05/07 06:12:46;;;;;;;19.98;16.50;;;24.10;56.70;;;;;;5051536;28;20041;-54
2021/05/07 06:15:13;;;;;;;22.20;16.77;;;24.10;56.70;;;;;;5052894;28;20075;-54
2021/05/07 06:17:40;;;;;;;22.02;18.13;;;24.10;56.70;;;;;;5084279;28;20040;-54
2021/05/07 06:20:09;;;;;;;25.33;16.15;;;24.10;56.60;;;;;;5071252;28;20036;-54
2021/05/07 06:22:36;;;;;;;29.10;18.92;;;24.20;56.80;;;;;;5071362;28;20032;-55
2021/05/07 06:25:05;;;;;;;30.23;19.80;;;24.10;56.70;;;;;;5070514;28;20041;-54
2021/05/07 06:27:31;;;;;;;31.52;20.77;;;24.10;56.70;;;;;;5070317;28;20044;-54
2021/05/07 06:29:57;;;;;;;32.97;20.40;;;24.10;56.60;;;;;;5085912;28;20044;-54
2021/05/07 06:32:23;;;;;;;32.13;21.42;;;24.10;56.60;;;;;;5070200;28;20107;-56
2021/05/07 06:34:49;;;;;;;42.80;19.88;;;24.20;56.70;;;;;;5069125;28;20049;-58
2021/05/07 06:37:15;;;;;;;25.60;20.48;;;24.20;56.60;;;;;;5070133;28;20039;-57
2021/05/07 06:39:41;;;;;;;29.42;20.15;;;24.20;57.20;;;;;;5052415;28;20147;-58
2021/05/07 06:42:07;;;;;;;33.85;19.55;;;24.20;56.60;;;;;;5070207;28;20145;-58
2021/05/07 06:44:33;;;;;;;29.67;20.30;;;24.20;56.60;;;;;;5070307;28;20119;-58
2021/05/07 06:47:01;;;;;;;27.15;18.75;;;24.20;56.60;;;;;;5052485;28;20606;-58
2021/05/07 06:49:28;;;;;;;29.00;19.60;;;24.20;56.70;;;;;;5070590;28;20085;-58
2021/05/07 06:51:54;;;;;;;25.85;18.33;;;24.20;56.60;;;;;;5052244;28;20055;-58
2021/05/07 06:54:27;;;;;;;25.33;17.40;;;24.20;56.70;;;;;;5052347;28;20037;-58
2021/05/07 06:56:55;;;;;;;25.15;16.60;;;24.20;56.60;;;;;;5069996;28;20037;-58
2021/05/07 06:59:23;;;;;;;22.30;16.60;;;24.30;56.40;;;;;;5070135;28;20039;-58
2021/05/07 07:01:49;;;;;;;26.02;16.88;;;24.30;56.40;;;;;;5070106;28;20525;-58
2021/05/07 07:04:15;;;;;;;23.02;15.48;;;24.30;56.30;;;;;;5070222;28;20025;-58
2021/05/07 07:06:41;;;;;;;23.60;15.18;;;24.30;55.90;;;;;;5052004;28;20037;-58
2021/05/07 07:09:07;;;;;;;26.23;17.60;;;24.30;55.80;;;;;;5069749;28;20555;-57
2021/05/07 07:11:33;;;;;;;20.52;14.52;;;24.30;55.80;;;;;;5070071;28;20478;-57
2021/05/07 07:13:59;;;;;;;22.20;14.50;;;24.30;55.40;;;;;;5069753;28;20029;-57
2021/05/07 07:16:26;;;;;;;22.20;14.70;;;24.30;55.30;;;;;;5052137;28;20029;-58
2021/05/07 07:18:52;;;;;;;21.80;12.40;;;24.30;55.30;;;;;;5070055;28;20029;-58
2021/05/07 07:21:18;;;;;;;20.35;12.45;;;24.30;55.10;;;;;;5069882;28;20033;-58
2021/05/07 07:23:44;;;;;;;16.80;12.68;;;24.30;54.90;;;;;;5070100;28;20888;-57
2021/05/07 07:26:10;;;;;;;15.82;12.00;;;24.30;55.00;;;;;;5051972;28;20155;-57
2021/05/07 07:28:37;;;;;;;14.48;9.82;;;24.30;55.00;;;;;;5051736;28;20398;-58
2021/05/07 07:31:04;;;;;;;16.42;10.73;;;24.30;54.10;;;;;;5070114;28;20466;-57
2021/05/07 07:33:30;;;;;;;16.10;10.05;;;24.40;54.60;;;;;;5073222;28;20045;-58
2021/05/07 07:35:57;;;;;;;11.35;9.13;;;24.30;54.50;;;;;;5073366;28;20478;-57
2021/05/07 07:38:23;;;;;;;15.13;9.63;;;24.30;54.50;;;;;;5055830;28;20028;-58
2021/05/07 07:40:50;;;;;;;13.30;9.90;;;24.40;54.60;;;;;;5073570;28;20103;-58
2021/05/07 07:43:18;;;;;;;15.48;10.77;;;24.40;54.50;;;;;;5073436;28;20135;-58
2021/05/07 07:45:44;;;;;;;24.05;13.63;;;24.40;54.60;;;;;;5073297;28;20394;-58
2021/05/07 07:48:11;;;;;;;21.45;15.13;;;24.50;54.80;;;;;;5073168;28;20029;-58
2021/05/07 07:50:38;;;;;;;22.20;16.30;;;24.40;54.80;;;;;;5073001;28;20041;-58
2021/05/07 07:53:04;;;;;;;26.48;18.65;;;24.50;55.00;;;;;;5072967;28;20056;-58
2021/05/07 07:55:30;;;;;;;31.20;20.80;;;24.50;55.10;;;;;;5073109;28;20040;-58
2021/05/07 07:57:57;;;;;;;29.75;21.20;;;24.50;55.40;;;;;;5073108;28;20040;-59
2021/05/07 08:00:23;;;;;;;29.88;20.80;;;24.50;55.50;;;;;;5073066;28;20051;-59
2021/05/07 08:02:49;;;;;;;33.17;23.00;;;24.40;55.50;;;;;;5073141;28;20438;-59
2021/05/07 08:05:15;;;;;;;33.70;21.67;;;24.40;55.70;;;;;;5054700;28;20427;-59
2021/05/07 08:07:42;;;;;;;34.95;24.27;;;24.40;55.80;;;;;;5072826;28;20103;-59
2021/05/07 08:10:09;;;;;;;33.70;22.10;;;24.50;56.00;;;;;;5073077;28;20503;-59
2021/05/07 08:12:36;;;;;;;38.05;22.85;;;24.50;56.00;;;;;;5072813;28;20127;-59
2021/05/07 08:15:02;;;;;;;34.15;23.15;;;24.50;56.10;;;;;;5072880;28;20048;-59
2021/05/07 08:17:28;;;;;;;31.63;21.55;;;24.40;56.10;;;;;;5072593;28;20036;-59
2021/05/07 08:19:54;;;;;;;30.00;21.25;;;24.50;56.20;;;;;;5073298;28;20044;-59
2021/05/07 08:22:20;;;;;;;28.30;20.15;;;24.50;56.30;;;;;;5054466;28;20032;-59
2021/05/07 08:24:46;;;;;;;29.30;19.08;;;24.50;56.30;;;;;;5072904;28;20569;-59
2021/05/07 08:27:13;;;;;;;27.75;19.30;;;24.40;56.60;;;;;;5072543;28;20120;-59
2021/05/07 08:29:39;;;;;;;27.50;17.92;;;24.40;56.60;;;;;;5072710;28;20035;-59
2021/05/07 08:32:05;;;;;;;23.10;15.88;;;24.40;56.60;;;;;;5054296;28;20036;-59
2021/05/07 08:34:56;;;;;;;26.02;17.70;;;24.40;56.70;;;;;;5072193;28;20473;-58
2021/05/07 08:37:23;;;;;;;24.27;17.35;;;24.40;57.00;;;;;;5054116;28;20499;-59
2021/05/07 08:39:49;;;;;;;24.58;17.52;;;24.40;57.00;;;;;;5072514;28;20028;-59
2021/05/07 08:42:16;;;;;;;25.58;16.60;;;24.40;57.00;;;;;;5071575;28;20041;-59
2021/05/07 08:44:42;;;;;;;23.80;16.05;;;24.40;57.30;;;;;;5071588;28;20045;-59
2021/05/07 08:47:09;;;;;;;21.83;14.10;;;24.50;57.10;;;;;;5071977;28;20032;-59
2021/05/07 08:49:36;;;;;;;19.63;14.05;;;24.50;57.10;;;;;;5071908;28;20093;-59
2021/05/07 08:52:02;;;;;;;18.17;13.48;;;24.50;57.00;;;;;;5037514;28;20098;-59
2021/05/07 08:54:28;;;;;;;16.13;11.80;;;24.50;56.90;;;;;;5071907;28;20040;-59
2021/05/07 08:56:56;;;;;;;17.50;13.25;;;24.50;56.90;;;;;;5053935;28;20044;-58
2021/05/07 08:59:22;;;;;;;19.95;13.18;;;24.50;57.00;;;;;;5071643;28;20048;-57
2021/05/07 09:01:50;;;;;;;17.08;12.48;;;24.50;57.00;;;;;;5071852;28;20460;-56
2021/05/07 09:04:21;;;;;;;15.25;11.25;;;24.50;57.10;;;;;;5053827;28;20037;-57
2021/05/07 09:06:55;;;;;;;12.93;10.48;;;24.50;57.00;;;;;;5071610;28;20039;-56
2021/05/07 09:09:29;;;;;;;12.38;9.13;;;24.50;56.90;;;;;;5071449;28;20052;-57
2021/05/07 09:11:57;;;;;;;147.23;131.35;;;24.50;56.90;;;;;;5072041;28;20148;-57
2021/05/07 09:14:25;;;;;;;78.90;70.82;;;24.50;56.90;;;;;;5053995;28;20044;-55
2021/05/07 09:17:02;;;;;;;50.88;45.53;;;24.50;56.90;;;;;;5071665;28;20029;-55
2021/05/07 09:19:30;;;;;;;37.63;30.15;;;24.50;56.90;;;;;;5071791;28;20397;-55
2021/05/07 09:21:57;;;;;;;39.75;35.15;;;24.60;56.80;;;;;;5071584;28;20028;-55
2021/05/07 09:24:37;;;;;;;28.13;25.10;;;24.60;57.40;;;;;;5071286;28;20497;-55
2021/05/07 09:27:05;;;;;;;21.00;18.77;;;24.50;56.80;;;;;;5071702;28;20044;-55
2021/05/07 09:29:32;;;;;;;17.80;15.70;;;24.60;56.70;;;;;;5071241;28;20040;-56
2021/05/07 09:32:01;;;;;;;14.63;13.00;;;24.60;56.80;;;;;;5071272;28;20040;-55
2021/05/07 09:34:27;;;;;;;14.15;11.40;;;24.60;56.90;;;;;;5070999;28;20127;-59
2021/05/07 09:36:53;;;;;;;10.95;9.85;;;24.60;56.90;;;;;;5070948;28;20106;-58
2021/05/07 09:39:23;;;;;;;9.98;8.45;;;24.70;56.90;;;;;;5071118;28;20082;-58
2021/05/07 09:41:52;;;;;;;10.13;8.50;;;24.60;56.80;;;;;;5071437;28;20043;-56
2021/05/07 09:44:26;;;;;;;9.75;7.63;;;24.70;57.10;;;;;;5071268;28;20046;-56
2021/05/07 09:46:54;;;;;;;8.57;7.50;;;24.70;57.10;;;;;;5071643;28;20045;-53
2021/05/07 09:49:26;;;;;;;7.65;6.00;;;24.70;57.10;;;;;;5071417;28;20044;-53
2021/05/07 09:51:53;;;;;;;8.07;6.45;;;24.70;56.90;;;;;;5071593;28;20441;-55
2021/05/07 09:54:19;;;;;;;11.45;6.03;;;24.80;56.90;;;;;;5086370;28;20113;-54
2021/05/07 09:56:45;;;;;;;7.00;6.22;;;24.80;56.90;;;;;;5071464;28;20028;-54
2021/05/07 09:59:12;;;;;;;6.78;5.82;;;24.90;56.90;;;;;;5071284;28;20037;-54
2021/05/07 10:01:42;;;;;;;6.28;5.68;;;24.90;56.80;;;;;;5071313;28;20036;-55
2021/05/07 10:04:08;;;;;;;6.13;5.53;;;24.90;56.70;;;;;;5071188;28;20040;-55
2021/05/07 10:06:34;;;;;;;6.07;5.57;;;25.00;56.60;;;;;;5071198;28;20460;-54
2021/05/07 10:09:01;;;;;;;7.20;6.50;;;25.00;56.60;;;;;;5070665;28;20050;-55
2021/05/07 10:11:41;;;;;;;7.57;6.80;;;25.10;56.60;;;;;;5070042;28;20051;-58
2021/05/07 10:14:13;;;;;;;8.27;7.43;;;25.10;56.30;;;;;;5070001;28;20537;-55
2021/05/07 10:16:39;;;;;;;8.15;7.35;;;25.10;56.30;;;;;;5070876;28;20040;-57
2021/05/07 10:19:07;;;;;;;10.80;9.70;;;25.20;56.40;;;;;;5071261;28;20446;-59
2021/05/07 10:21:39;;;;;;;10.55;9.20;;;25.30;56.40;;;;;;5071425;28;20051;-57
2021/05/07 10:24:16;;;;;;;14.25;10.95;;;25.30;56.20;;;;;;5070817;28;20482;-55
2021/05/07 10:26:43;;;;;;;13.25;10.95;;;25.30;56.30;;;;;;5070973;28;20512;-56
2021/05/07 10:29:17;;;;;;;14.55;11.80;;;25.30;56.30;;;;;;5071001;28;20393;-55
2021/05/07 10:31:50;;;;;;;14.48;11.82;;;25.40;56.50;;;;;;5071034;28;20509;-57
2021/05/07 10:34:17;;;;;;;11.68;10.02;;;25.40;56.40;;;;;;5070598;28;20049;-57
2021/05/07 10:36:44;;;;;;;9.20;8.27;;;25.50;56.40;;;;;;5070712;28;20029;-58
2021/05/07 10:39:28;;;;;;;7.93;7.22;;;25.50;56.30;;;;;;5086042;28;20044;-56
2021/05/07 10:41:58;;;;;;;32.10;7.90;;;25.50;56.40;;;;;;5070924;28;20109;-55
2021/05/07 10:44:26;;;;;;;10.18;7.00;;;25.60;56.40;;;;;;5070441;28;20037;-53
2021/05/07 10:47:06;;;;;;;8.52;7.72;;;25.60;56.40;;;;;;5070519;28;20494;-55
2021/05/07 10:49:36;;;;;;;;;;;25.70;56.40;;;;;;5071068;28;20056;-55
2021/05/07 10:52:05;;;;;;;12.52;8.43;;;25.80;56.70;;;;;;5070781;28;19958;-56
2021/05/07 10:54:53;;;;;;;9.85;8.95;;;25.90;56.20;;;;;;5070273;28;20140;-55
2021/05/07 10:57:20;;;;;;;8.88;7.55;;;25.90;56.30;;;;;;5052607;28;20044;-54
2021/05/07 10:59:56;;;;;;;8.30;7.40;;;26.00;56.10;;;;;;5070316;28;20100;-54
2021/05/07 11:02:23;;;;;;;8.30;7.32;;;26.00;56.00;;;;;;5070359;28;20097;-54
2021/05/07 11:04:49;;;;;;;8.15;7.35;;;26.10;55.90;;;;;;5070354;28;20067;-54
2021/05/07 11:07:33;;;;;;;8.00;7.13;;;26.20;55.90;;;;;;5072714;28;20044;-54
2021/05/07 11:09:59;;;;;;;8.43;7.05;;;26.20;55.70;;;;;;5074190;28;20060;-54
2021/05/07 11:12:25;;;;;;;8.70;7.20;;;26.30;55.70;;;;;;5074145;28;20076;-54
2021/05/07 11:14:51;;;;;;;8.57;7.20;;;26.30;55.50;;;;;;5073782;28;20045;-55
2021/05/07 11:17:18;;;;;;;10.80;7.88;;;26.40;56.00;;;;;;5073839;28;20429;-54
2021/05/07 11:19:44;;;;;;;8.30;7.50;;;26.50;55.40;;;;;;5073786;28;20064;-54
2021/05/07 11:22:10;;;;;;;7.43;6.72;;;26.50;55.20;;;;;;5074017;28;20484;-55
2021/05/07 11:24:47;;;;;;;7.43;6.70;;;26.60;55.10;;;;;;5073741;28;20406;-54
2021/05/07 11:27:22;;;;;;;7.35;6.65;;;26.70;54.90;;;;;;5073741;28;20045;-54
2021/05/07 11:29:53;;;;;;;8.82;7.93;;;26.70;54.60;;;;;;5073897;28;20048;-54
2021/05/07 11:32:23;;;;;;;7.50;6.70;;;26.80;54.70;;;;;;5073559;28;20486;-55
2021/05/07 11:34:53;;;;;;;;;;;26.90;54.40;;;;;;5073932;28;20451;-54
2021/05/07 11:37:20;;;;;;;9.63;8.55;;;27.00;55.20;;;;;;5073828;28;19909;-55
2021/05/07 11:40:08;;;;;;;9.25;8.38;;;27.10;54.30;;;;;;5073468;28;20039;-55
2021/05/07 11:42:37;;;;;;;9.70;8.70;;;27.20;54.40;;;;;;5073624;28;20051;-55
2021/05/07 11:45:17;;;;;;;9.63;8.60;;;27.20;54.20;;;;;;5073371;28;20490;-54
2021/05/07 11:47:44;;;;;;;12.32;9.40;;;27.30;54.10;;;;;;5073586;28;20040;-54
2021/05/07 11:50:13;;;;;;;9.95;8.75;;;27.30;54.10;;;;;;5055105;28;20123;-55
2021/05/07 11:52:44;;;;;;;9.10;8.20;;;27.30;53.70;;;;;;5073544;28;20040;-55
2021/05/07 11:55:19;;;;;;;12.40;10.38;;;27.30;53.70;;;;;;5073160;28;20119;-55
2021/05/07 11:58:00;;;;;;;16.08;14.43;;;27.20;53.40;;;;;;5073340;28;20454;-55
2021/05/07 12:00:27;;;;;;;10.43;9.40;;;27.20;53.40;;;;;;5073084;28;20056;-55
2021/05/07 12:03:14;;;;;;;11.32;10.13;;;27.20;53.90;;;;;;5073100;28;20028;-55
2021/05/07 12:05:42;;;;;;;13.80;10.43;;;27.10;54.30;;;;;;5073038;28;20032;-55
2021/05/07 12:08:09;;;;;;;11.13;9.93;;;27.20;54.40;;;;;;5072932;28;20040;-55
2021/05/07 12:10:37;;;;;;;10.80;9.73;;;27.10;54.50;;;;;;5072898;28;20519;-55
2021/05/07 12:13:03;;;;;;;24.58;11.88;;;27.10;54.60;;;;;;5054949;28;20040;-55
2021/05/07 12:15:48;;;;;;;15.73;11.23;;;27.00;54.60;;;;;;5072659;28;20128;-55
2021/05/07 12:18:18;;;;;;;11.70;10.05;;;27.00;55.00;;;;;;5073227;28;20445;-55
2021/05/07 12:20:46;;;;;;;11.98;10.25;;;26.90;55.00;;;;;;5072788;28;20120;-54
2021/05/07 12:23:13;;;;;;;13.10;11.38;;;26.90;55.00;;;;;;5072738;28;20040;-55
2021/05/07 12:25:47;;;;;;;19.60;11.68;;;26.90;55.10;;;;;;5072535;28;20051;-55
2021/05/07 12:28:21;;;;;;;18.33;12.15;;;26.90;55.10;;;;;;5073420;28;20032;-55
2021/05/07 12:30:49;;;;;;;12.40;11.25;;;26.90;55.20;;;;;;5054872;28;20127;-55
2021/05/07 12:33:23;;;;;;;15.43;11.73;;;26.80;55.10;;;;;;5072663;28;20439;-55
2021/05/07 12:35:52;;;;;;;14.48;12.15;;;26.80;54.90;;;;;;5072263;28;20040;-54
2021/05/07 12:38:25;;;;;;;13.18;11.80;;;26.80;55.00;;;;;;5071938;28;20040;-55
2021/05/07 12:40:57;;;;;;;14.10;11.38;;;26.80;55.50;;;;;;5071892;28;20040;-54
2021/05/07 12:43:24;;;;;;;12.50;11.20;;;26.80;55.90;;;;;;5071705;28;20037;-55
2021/05/07 12:45:51;;;;;;;13.57;12.27;;;26.80;55.90;;;;;;5071604;28;20494;-55